Time;durP1;ratioP1;P1;durP2;ratioP2;P2;SDS_P1;SDS_P2;PMS_P1;PMS_P2;Temp;Humidity;BMP_temperature;BMP_pressure;BME280_temperature;BME280_humidity;BME280_pressure;Samples;Min_cycle;Max_cycle;Signal;HPM_P1;HPM_P2
2022/06/03 00:00:27;;;;;;;9.52;3.90;;;10.00;99.90;;;;;;6283815;22;19987;-84
2022/06/03 00:03:33;;;;;;;10.20;4.30;;;10.00;99.90;;;;;;6283406;22;20025;-84
2022/06/03 00:06:36;;;;;;;10.43;4.22;;;9.90;99.90;;;;;;6179660;22;20585;-84
2022/06/03 00:09:39;;;;;;;9.98;4.35;;;9.90;99.90;;;;;;6283947;22;20434;-84
2022/06/03 00:12:56;;;;;;;9.25;4.22;;;10.00;99.90;;;;;;6284880;22;20017;-84
2022/06/03 00:16:17;;;;;;;9.75;4.13;;;9.90;99.90;;;;;;6285709;22;20021;-84
2022/06/03 00:19:12;;;;;;;10.05;4.03;;;9.70;99.90;;;;;;6176843;22;20017;-84
2022/06/03 00:22:03;;;;;;;10.90;4.05;;;10.90;99.90;;;;;;6286122;22;20013;-84
2022/06/03 00:25:07;;;;;;;9.77;4.50;;;9.80;99.90;;;;;;6285622;22;20100;-84
2022/06/03 00:27:55;;;;;;;12.85;3.80;;;9.80;99.90;;;;;;6285441;22;20021;-84
2022/06/03 00:30:58;;;;;;;10.07;4.03;;;9.80;99.90;;;;;;6285543;22;20341;-84
2022/06/03 00:34:14;;;;;;;10.68;4.07;;;9.80;99.90;;;;;;6230918;22;20022;-84
2022/06/03 00:37:26;;;;;;;9.73;4.28;;;9.80;99.90;;;;;;6188580;23;20059;-84
2022/06/03 00:40:39;;;;;;;9.35;4.03;;;9.80;99.90;;;;;;6311206;22;20065;-84
2022/06/03 00:43:41;;;;;;;9.23;4.10;;;8.70;99.90;;;;;;6334723;22;20343;-84
2022/06/03 00:46:48;;;;;;;11.13;4.00;;;10.00;99.90;;;;;;6338675;22;20343;-84
2022/06/03 00:49:51;;;;;;;10.40;4.45;;;9.60;99.90;;;;;;6311834;22;20324;-84
2022/06/03 00:52:51;;;;;;;11.73;4.30;;;9.60;99.90;;;;;;6311967;22;20021;-84
2022/06/03 00:56:05;;;;;;;10.27;4.50;;;9.50;99.90;;;;;;6339232;22;20040;-84
2022/06/03 00:59:16;;;;;;;9.57;4.20;;;9.50;99.90;;;;;;6339529;22;20011;-84
2022/06/03 01:01:42;;;;;;;10.77;4.47;;;9.00;99.90;;;;;;6310796;22;20349;-84
2022/06/03 01:04:51;;;;;;;9.80;4.70;;;10.30;99.90;;;;;;6311639;22;20019;-84
2022/06/03 01:11:49;;;;;;;12.25;4.50;;;9.50;99.90;;;;;;6213882;23;20019;-84
2022/06/03 01:14:42;;;;;;;11.45;4.80;;;9.40;99.90;;;;;;6188682;23;20044;-84
2022/06/03 01:17:43;;;;;;;9.85;4.47;;;9.10;99.90;;;;;;6214899;23;20016;-84
2022/06/03 01:20:32;;;;;;;10.30;4.90;;;8.80;99.90;;;;;;6190440;23;20171;-84
2022/06/03 01:26:44;;;;;;;12.30;4.80;;;9.20;99.90;;;;;;6123007;23;20021;-84
2022/06/03 01:29:53;;;;;;;11.13;5.18;;;9.10;99.90;;;;;;6158521;23;20020;-84
2022/06/03 01:32:55;;;;;;;13.10;5.28;;;9.20;99.90;;;;;;6153560;23;21083;-84
2022/06/03 01:36:11;;;;;;;11.85;4.90;;;8.80;99.90;;;;;;6243988;23;20480;-84
2022/06/03 01:39:02;;;;;;;10.50;4.95;;;9.20;99.90;;;;;;6311494;22;20037;-84
2022/06/03 01:42:08;;;;;;;12.15;5.00;;;9.20;99.90;;;;;;6311544;22;20011;-84
2022/06/03 01:45:06;;;;;;;11.77;4.97;;;9.10;99.90;;;;;;6310906;22;20015;-84
2022/06/03 01:48:12;;;;;;;11.63;5.60;;;8.80;99.90;;;;;;6310955;22;20022;-84
2022/06/03 01:51:16;;;;;;;11.55;4.90;;;9.00;99.90;;;;;;6307738;22;20022;-84
2022/06/03 01:54:37;;;;;;;11.30;5.20;;;8.80;99.90;;;;;;6338637;22;20097;-84
2022/06/03 01:57:46;;;;;;;11.05;5.20;;;8.70;99.90;;;;;;6272681;22;20520;-84
2022/06/03 02:03:12;;;;;;;11.95;5.30;;;8.90;99.90;;;;;;6336010;22;20019;-85
2022/06/03 02:09:54;;;;;;;15.70;5.88;;;8.60;99.90;;;;;;6338354;22;20114;-84
2022/06/03 02:12:54;;;;;;;11.48;5.82;;;8.90;99.90;;;;;;6310304;22;20079;-84
2022/06/03 02:15:57;;;;;;;10.68;5.38;;;8.40;99.90;;;;;;6338866;22;20050;-84
2022/06/03 02:19:00;;;;;;;12.77;5.65;;;9.20;99.90;;;;;;6309700;22;20063;-84
2022/06/03 02:22:16;;;;;;;10.77;5.68;;;8.70;99.90;;;;;;6310946;22;20014;-84
2022/06/03 02:25:15;;;;;;;13.15;6.00;;;8.60;99.90;;;;;;6338768;22;20011;-84
2022/06/03 02:28:21;;;;;;;11.43;5.75;;;8.60;99.90;;;;;;6338906;22;20095;-85
2022/06/03 02:31:25;;;;;;;14.55;6.07;;;8.60;99.90;;;;;;6310365;22;20293;-84
2022/06/03 02:34:09;;;;;;;14.27;5.88;;;8.50;99.90;;;;;;6310529;22;20339;-84
2022/06/03 02:37:26;;;;;;;12.82;6.15;;;8.40;99.90;;;;;;6338844;22;20454;-85
2022/06/03 02:40:30;;;;;;;14.88;6.03;;;8.50;99.90;;;;;;6310072;22;20011;-84
2022/06/03 02:43:33;;;;;;;13.30;5.95;;;8.40;99.90;;;;;;6212171;23;20031;-85
2022/06/03 02:46:26;;;;;;;13.33;5.77;;;8.00;99.90;;;;;;6211849;23;20035;-85
2022/06/03 02:49:29;;;;;;;13.50;6.68;;;8.40;99.90;;;;;;6338348;22;20085;-84
2022/06/03 02:52:38;;;;;;;13.73;6.28;;;8.40;99.90;;;;;;6310662;22;20098;-84
2022/06/03 02:55:16;;;;;;;14.52;6.15;;;8.30;99.90;;;;;;6309308;22;20451;-84
2022/06/03 02:58:18;;;;;;;12.73;6.47;;;8.30;99.90;;;;;;6310140;22;20017;-85
2022/06/03 03:01:42;;;;;;;12.65;5.93;;;8.30;99.90;;;;;;6309649;22;20019;-85
2022/06/03 03:04:51;;;;;;;12.07;5.83;;;8.20;99.90;;;;;;6310943;22;20015;-84
2022/06/03 03:07:42;;;;;;;12.80;6.18;;;7.50;99.90;;;;;;6309692;22;20447;-84
2022/06/03 03:10:35;;;;;;;12.60;6.00;;;8.20;99.90;;;;;;6310667;22;20011;-84
2022/06/03 03:13:10;;;;;;;10.98;6.05;;;8.00;99.90;;;;;;6338413;22;20019;-84
2022/06/03 03:16:20;;;;;;;13.60;6.38;;;8.60;99.90;;;;;;6337854;22;20026;-85
2022/06/03 03:22:52;;;;;;;14.35;6.50;;;8.10;99.90;;;;;;6275519;22;20015;-85
2022/06/03 03:25:36;;;;;;;15.80;7.18;;;8.00;99.90;;;;;;6310704;22;20053;-84
2022/06/03 03:28:54;;;;;;;14.02;6.45;;;8.00;99.90;;;;;;6310122;22;20011;-85
2022/06/03 03:31:57;;;;;;;13.35;6.70;;;7.70;99.90;;;;;;6337790;22;20510;-85
2022/06/03 03:35:10;;;;;;;18.38;7.65;;;8.00;99.90;;;;;;6310304;22;20015;-85
2022/06/03 03:37:57;;;;;;;14.27;7.35;;;8.00;99.90;;;;;;6338669;22;20011;-85
2022/06/03 03:41:10;;;;;;;16.02;7.40;;;7.50;99.90;;;;;;6310183;22;20019;-85
2022/06/03 03:44:27;;;;;;;14.25;7.20;;;7.60;99.90;;;;;;6309745;22;20474;-84
2022/06/03 03:47:11;;;;;;;14.98;7.28;;;8.00;99.90;;;;;;6186185;23;20074;-85
2022/06/03 03:50:22;;;;;;;16.58;7.88;;;7.90;99.90;;;;;;6218495;22;20015;-85
2022/06/03 03:53:17;;;;;;;14.23;6.88;;;8.00;99.90;;;;;;6262840;22;20447;-85
2022/06/03 03:56:30;;;;;;;17.90;7.80;;;9.10;99.90;;;;;;6336250;22;20014;-85
2022/06/03 04:03:10;;;;;;;15.98;7.40;;;8.00;99.90;;;;;;6274188;22;20317;-85
2022/06/03 04:06:28;;;;;;;16.92;8.15;;;7.60;99.90;;;;;;6335929;22;20463;-85
2022/06/03 04:09:28;;;;;;;17.13;7.82;;;8.40;99.90;;;;;;6337610;22;20021;-84
2022/06/03 04:12:28;;;;;;;15.68;8.57;;;7.90;99.90;;;;;;6336875;22;20019;-84
2022/06/03 04:15:08;;;;;;;15.63;8.07;;;8.20;99.90;;;;;;6309422;22;20096;-85
2022/06/03 04:17:57;;;;;;;16.92;7.88;;;8.40;99.90;;;;;;6309752;22;20023;-85
2022/06/03 04:21:16;;;;;;;16.58;8.48;;;8.10;99.90;;;;;;6316953;22;20447;-84
2022/06/03 04:24:06;;;;;;;16.58;8.35;;;8.60;99.90;;;;;;6311416;22;20011;-85
2022/06/03 04:27:03;;;;;;;15.52;8.35;;;8.50;99.90;;;;;;6309581;22;20015;-85
2022/06/03 04:30:04;;;;;;;17.75;8.30;;;8.70;99.90;;;;;;6337906;22;20525;-85
2022/06/03 04:33:13;;;;;;;16.58;8.35;;;8.70;99.90;;;;;;6337586;22;20047;-85
2022/06/03 04:36:23;;;;;;;16.48;9.23;;;8.50;99.90;;;;;;6309573;22;20098;-85
2022/06/03 04:39:29;;;;;;;18.00;9.43;;;8.90;99.90;;;;;;6337218;22;20019;-85
2022/06/03 04:42:44;;;;;;;15.18;8.55;;;8.90;99.90;;;;;;6338378;22;20061;-84
2022/06/03 04:45:38;;;;;;;;;;;9.00;99.90;;;;;;6338428;22;20454;-83
2022/06/03 04:48:41;;;;;;;19.00;8.70;;;9.20;99.90;;;;;;6309698;22;19918;-84
2022/06/03 04:51:09;;;;;;;18.58;9.27;;;9.20;99.90;;;;;;6310372;22;20335;-84
2022/06/03 04:54:13;;;;;;;24.00;10.68;;;9.30;99.90;;;;;;6336911;22;20018;-84
2022/06/03 04:57:06;;;;;;;17.35;9.20;;;9.40;99.90;;;;;;6309581;22;20053;-83
2022/06/03 05:00:08;;;;;;;15.93;8.98;;;9.60;99.90;;;;;;6312237;22;20447;-84
2022/06/03 05:03:04;;;;;;;17.30;9.63;;;9.60;99.90;;;;;;6311660;22;20015;-84
2022/06/03 05:20:40;;;;;;;18.23;9.48;;;10.10;99.90;;;;;;6280989;22;19915;-83
2022/06/03 05:23:30;;;;;;;17.35;9.30;;;10.20;99.90;;;;;;6268543;22;20020;-83
2022/06/03 05:26:14;;;;;;;17.65;9.45;;;10.30;99.90;;;;;;6305726;22;20027;-84
2022/06/03 05:29:08;;;;;;;;;;;10.40;99.90;;;;;;6280351;22;20019;-84
2022/06/03 05:32:21;;;;;;;17.10;8.97;;;10.50;99.90;;;;;;6279995;22;20255;-85
2022/06/03 05:35:36;;;;;;;16.75;9.38;;;10.70;99.90;;;;;;6307104;22;20015;-84
2022/06/03 05:38:40;;;;;;;16.60;8.85;;;10.80;99.90;;;;;;6307574;22;20041;-84
2022/06/03 05:45:24;;;;;;;17.27;8.55;;;11.00;99.90;;;;;;6306869;22;20065;-84
2022/06/03 05:51:48;;;;;;;14.20;8.30;;;11.30;99.90;;;;;;6336656;22;20034;-84
2022/06/03 05:54:48;;;;;;;15.00;7.82;;;11.30;99.90;;;;;;6311044;22;20057;-84
2022/06/03 06:01:51;;;;;;;;;;;;;;;;;;;;;
2022/06/03 06:05:00;;;;;;;12.77;6.45;;;11.80;99.90;;;;;;6116352;23;20016;-84
2022/06/03 06:08:08;;;;;;;15.30;6.78;;;12.20;99.90;;;;;;6187819;23;20023;-84
2022/06/03 06:11:18;;;;;;;13.20;6.38;;;12.00;99.90;;;;;;6212642;23;20088;-84
2022/06/03 06:14:21;;;;;;;13.82;6.75;;;12.10;99.90;;;;;;6187422;23;20035;-83
2022/06/03 06:16:52;;;;;;;13.95;6.35;;;12.30;99.90;;;;;;6212403;23;20021;-84
2022/06/03 06:19:54;;;;;;;13.10;5.40;;;12.40;99.90;;;;;;6187455;23;20021;-84
2022/06/03 06:22:56;;;;;;;12.55;6.57;;;13.00;99.90;;;;;;6205254;23;20086;-84
2022/06/03 06:25:51;;;;;;;12.98;6.10;;;13.70;99.90;;;;;;6211656;23;20021;-84
2022/06/03 06:29:05;;;;;;;13.32;6.57;;;13.10;99.90;;;;;;6187419;23;20020;-84
2022/06/03 06:32:14;;;;;;;13.70;6.53;;;12.80;99.90;;;;;;6201965;23;20378;-84
2022/06/03 06:35:23;;;;;;;15.18;6.60;;;12.90;99.90;;;;;;6244939;22;20015;-84
2022/06/03 06:38:38;;;;;;;11.48;6.05;;;13.20;99.90;;;;;;6279071;22;20019;-84
2022/06/03 06:41:24;;;;;;;12.10;6.03;;;13.30;99.90;;;;;;6279226;22;20023;-84
2022/06/03 06:44:42;;;;;;;13.52;5.60;;;13.40;99.90;;;;;;6279764;22;20053;-84
2022/06/03 06:47:55;;;;;;;12.50;5.70;;;13.40;99.90;;;;;;6279252;22;20025;-83
2022/06/03 06:51:03;;;;;;;10.63;4.95;;;13.70;99.90;;;;;;6307135;22;20019;-84
